createdAt,value
2018-07-28T00:01:51.746Z,24.20
2018-07-28T00:04:19.583Z,24.02
2018-07-28T00:06:47.493Z,24.05
2018-07-28T00:09:15.373Z,24.07
2018-07-28T00:11:43.782Z,24.04
2018-07-28T00:14:11.669Z,24.09
2018-07-28T00:16:39.590Z,24.06
2018-07-28T00:19:07.400Z,23.89
2018-07-28T00:21:35.266Z,23.88
2018-07-28T00:24:03.128Z,23.95
2018-07-28T00:26:30.998Z,23.97
2018-07-28T00:28:58.911Z,23.99
2018-07-28T00:31:26.825Z,24.04
2018-07-28T00:33:54.693Z,23.99
2018-07-28T00:36:22.463Z,24.00
2018-07-28T00:38:50.294Z,24.03
2018-07-28T00:41:18.166Z,24.04
2018-07-28T00:43:46.074Z,24.08
2018-07-28T00:46:13.900Z,24.06
2018-07-28T00:48:41.750Z,24.09
2018-07-28T00:51:09.597Z,23.80
2018-07-28T00:53:37.417Z,23.88
2018-07-28T00:56:05.436Z,23.87
2018-07-28T00:58:33.271Z,23.84
2018-07-28T01:01:01.172Z,23.83
2018-07-28T01:03:29.017Z,23.90
2018-07-28T01:05:56.929Z,23.97
2018-07-28T01:08:24.778Z,23.99
2018-07-28T01:10:52.683Z,23.87
2018-07-28T01:13:20.478Z,23.98
2018-07-28T01:15:48.246Z,24.01
2018-07-28T01:18:16.165Z,24.02
2018-07-28T01:20:44.062Z,24.15
2018-07-28T01:23:18.681Z,23.90
2018-07-28T01:25:46.562Z,23.83
2018-07-28T01:28:14.429Z,23.78
2018-07-28T01:30:42.284Z,23.61
2018-07-28T01:33:10.097Z,23.33
2018-07-28T01:35:37.980Z,23.50
2018-07-28T01:38:05.918Z,23.47
2018-07-28T01:40:33.808Z,23.42
2018-07-28T01:43:01.679Z,23.45
2018-07-28T01:45:29.598Z,23.51
2018-07-28T01:47:57.482Z,23.54
2018-07-28T01:50:25.314Z,23.63
2018-07-28T01:52:53.138Z,23.59
2018-07-28T01:55:20.997Z,23.40
2018-07-28T01:57:48.922Z,23.42
2018-07-28T02:00:16.862Z,23.45
2018-07-28T02:02:44.702Z,23.50
2018-07-28T02:05:12.546Z,23.49
2018-07-28T02:07:40.418Z,23.49
2018-07-28T02:10:09.357Z,23.55
2018-07-28T02:12:37.341Z,23.54
2018-07-28T02:15:06.072Z,23.68
2018-07-28T02:17:33.943Z,23.90
2018-07-28T02:20:01.797Z,23.98
2018-07-28T02:22:29.657Z,24.02
2018-07-28T02:24:57.576Z,24.12
2018-07-28T02:27:25.393Z,24.23
2018-07-28T02:29:53.221Z,24.36
2018-07-28T02:32:21.073Z,24.41
2018-07-28T02:34:48.883Z,24.41
2018-07-28T02:37:16.775Z,24.38
2018-07-28T02:39:44.549Z,24.40
2018-07-28T02:42:12.371Z,24.53
2018-07-28T02:44:40.221Z,24.56
2018-07-28T02:47:08.078Z,24.67
2018-07-28T02:49:35.897Z,24.77
2018-07-28T02:52:03.845Z,24.82
2018-07-28T02:54:31.699Z,24.81
2018-07-28T02:56:59.477Z,24.89
2018-07-28T02:59:27.225Z,24.84
2018-07-28T03:01:55.091Z,24.65
2018-07-28T03:04:22.911Z,24.56
2018-07-28T03:06:50.786Z,24.44
2018-07-28T03:09:18.605Z,24.37
2018-07-28T03:11:46.477Z,24.32
2018-07-28T03:14:14.366Z,24.42
2018-07-28T03:16:42.206Z,24.53
2018-07-28T03:19:10.027Z,24.52
2018-07-28T03:21:37.822Z,24.31
2018-07-28T03:24:05.674Z,24.46
2018-07-28T03:26:33.551Z,24.58
2018-07-28T03:29:01.324Z,24.63
2018-07-28T03:31:29.109Z,24.61
2018-07-28T03:33:56.961Z,24.73
2018-07-28T03:36:24.710Z,24.48
2018-07-28T03:38:52.581Z,23.92
2018-07-28T03:41:20.413Z,23.92
2018-07-28T03:43:48.283Z,23.92
2018-07-28T03:46:16.134Z,23.50
2018-07-28T03:48:43.998Z,23.80
2018-07-28T03:51:11.869Z,23.67
2018-07-28T03:53:40.070Z,23.54
2018-07-28T03:56:07.933Z,23.34
2018-07-28T03:58:35.750Z,23.93
2018-07-28T04:01:03.604Z,24.05
2018-07-28T04:03:31.498Z,23.70
2018-07-28T04:05:59.305Z,24.05
2018-07-28T04:08:27.202Z,24.23
2018-07-28T04:10:55.034Z,24.50
2018-07-28T04:13:22.822Z,24.77
2018-07-28T04:15:50.667Z,24.97
2018-07-28T04:18:18.533Z,25.00
2018-07-28T04:20:46.394Z,25.08
2018-07-28T04:23:14.286Z,25.40
2018-07-28T04:25:42.102Z,25.73
2018-07-28T04:28:09.944Z,25.23
2018-07-28T04:30:37.800Z,25.01
2018-07-28T04:33:05.658Z,25.31
2018-07-28T04:35:33.543Z,24.95
2018-07-28T04:38:01.404Z,25.08
2018-07-28T04:40:29.288Z,25.02
2018-07-28T04:42:57.062Z,25.57
2018-07-28T04:45:24.829Z,26.07
2018-07-28T04:47:52.593Z,25.95
2018-07-28T04:50:20.373Z,25.16
2018-07-28T04:52:48.137Z,24.97
2018-07-28T04:55:15.985Z,25.21
2018-07-28T04:57:43.827Z,24.62
2018-07-28T05:00:11.698Z,24.28
2018-07-28T05:02:39.481Z,24.28
2018-07-28T05:05:07.315Z,24.10
2018-07-28T05:07:35.302Z,23.64
2018-07-28T05:10:03.227Z,23.60
2018-07-28T05:12:31.029Z,23.90
2018-07-28T05:14:58.887Z,24.43
2018-07-28T05:17:26.706Z,24.10
2018-07-28T05:19:54.578Z,24.37
2018-07-28T05:22:22.455Z,24.65
2018-07-28T05:24:50.316Z,24.99
2018-07-28T05:27:18.109Z,25.36
2018-07-28T05:29:46.080Z,25.51
2018-07-28T05:32:13.845Z,25.65
2018-07-28T05:34:41.734Z,26.00
2018-07-28T05:37:09.549Z,26.23
2018-07-28T05:39:37.418Z,26.01
2018-07-28T05:42:05.247Z,25.85
2018-07-28T05:44:33.074Z,25.68
2018-07-28T05:47:00.921Z,25.84
2018-07-28T05:49:28.849Z,26.02
2018-07-28T05:51:57.054Z,25.52
2018-07-28T05:54:24.813Z,25.62
2018-07-28T05:56:52.656Z,25.95
2018-07-28T05:59:20.486Z,26.05
2018-07-28T06:01:48.333Z,26.28
2018-07-28T06:04:16.129Z,26.57
2018-07-28T06:06:44.053Z,26.67
2018-07-28T06:09:11.975Z,26.54
2018-07-28T06:11:39.915Z,26.17
2018-07-28T06:14:07.800Z,26.35
2018-07-28T06:16:35.682Z,26.33
2018-07-28T06:19:03.530Z,26.25
2018-07-28T06:21:31.317Z,25.85
2018-07-28T06:23:59.131Z,26.08
2018-07-28T06:26:26.997Z,25.83
2018-07-28T06:28:54.788Z,26.44
2018-07-28T06:31:22.569Z,26.84
2018-07-28T06:33:50.314Z,26.71
2018-07-28T06:36:18.341Z,26.66
2018-07-28T06:38:46.542Z,26.68
2018-07-28T06:41:14.321Z,26.66
2018-07-28T06:43:42.101Z,27.02
2018-07-28T06:46:09.974Z,27.74
2018-07-28T06:48:37.811Z,26.70
2018-07-28T06:51:05.790Z,26.67
2018-07-28T06:53:33.683Z,25.85
2018-07-28T06:56:01.471Z,27.25
2018-07-28T06:58:29.304Z,28.37
2018-07-28T07:00:57.121Z,29.20
2018-07-28T07:03:24.930Z,30.10
2018-07-28T07:05:52.750Z,30.56
2018-07-28T07:08:20.527Z,30.75
2018-07-28T07:10:48.330Z,28.80
2018-07-28T07:13:16.114Z,28.58
2018-07-28T07:15:43.918Z,28.31
2018-07-28T07:18:11.713Z,27.32
2018-07-28T07:20:39.517Z,26.91
2018-07-28T07:23:07.283Z,27.04
2018-07-28T07:25:35.088Z,27.37
2018-07-28T07:28:02.937Z,27.70
2018-07-28T07:30:30.786Z,28.77
2018-07-28T07:32:58.599Z,28.86
2018-07-28T07:35:26.441Z,28.63
2018-07-28T07:37:54.214Z,27.73
2018-07-28T07:40:21.990Z,27.51
2018-07-28T07:42:49.747Z,28.10
2018-07-28T07:45:17.501Z,28.18
2018-07-28T07:47:45.359Z,28.33
2018-07-28T07:50:13.135Z,28.65
2018-07-28T07:52:40.893Z,27.59
2018-07-28T07:55:08.754Z,26.75
2018-07-28T07:57:36.552Z,26.95
2018-07-28T08:00:04.442Z,27.37
2018-07-28T08:02:32.273Z,27.99
2018-07-28T08:05:00.082Z,28.50
2018-07-28T08:07:28.249Z,29.08
2018-07-28T08:09:56.036Z,29.94
2018-07-28T08:12:23.837Z,30.85
2018-07-28T08:14:51.675Z,31.64
2018-07-28T08:17:19.506Z,30.77
2018-07-28T08:19:47.294Z,30.50
2018-07-28T08:22:15.125Z,30.15
2018-07-28T08:24:42.930Z,29.18
2018-07-28T08:27:10.689Z,29.05
2018-07-28T08:29:38.472Z,28.83
2018-07-28T08:32:06.351Z,29.30
2018-07-28T08:34:34.104Z,28.79
2018-07-28T08:37:01.901Z,29.03
2018-07-28T08:39:29.676Z,29.56
2018-07-28T08:41:57.469Z,29.20
2018-07-28T08:44:25.240Z,30.55
2018-07-28T08:46:52.993Z,31.66
2018-07-28T08:49:20.805Z,31.68
2018-07-28T08:51:48.614Z,31.97
2018-07-28T08:54:16.364Z,33.08
2018-07-28T08:56:44.158Z,32.96
2018-07-28T08:59:11.913Z,33.59
2018-07-28T09:01:39.776Z,34.73
2018-07-28T09:04:07.644Z,34.70
2018-07-28T09:06:35.429Z,34.57
2018-07-28T09:09:04.344Z,33.18
2018-07-28T09:11:32.106Z,32.39
2018-07-28T09:13:59.928Z,31.97
2018-07-28T09:16:27.787Z,31.91
2018-07-28T09:18:55.553Z,30.98
2018-07-28T09:21:23.314Z,30.94
2018-07-28T09:23:51.118Z,31.39
2018-07-28T09:26:18.955Z,32.95
2018-07-28T09:28:46.863Z,31.92
2018-07-28T09:31:14.651Z,30.92
2018-07-28T09:33:42.445Z,31.79
2018-07-28T09:36:10.254Z,32.38
2018-07-28T09:38:38.040Z,33.30
2018-07-28T09:41:05.870Z,34.48
2018-07-28T09:43:33.649Z,33.78
2018-07-28T09:46:01.599Z,33.31
2018-07-28T09:48:29.358Z,32.05
2018-07-28T09:50:57.107Z,32.56
2018-07-28T09:53:24.937Z,32.92
2018-07-28T09:55:52.690Z,31.91
2018-07-28T09:58:20.486Z,32.59
2018-07-28T10:00:53.867Z,33.10
2018-07-28T10:03:21.674Z,30.49
2018-07-28T10:05:49.491Z,31.84
2018-07-28T10:08:17.294Z,33.77
2018-07-28T10:10:45.065Z,33.86
2018-07-28T10:13:12.894Z,33.53
2018-07-28T10:15:40.693Z,33.60
2018-07-28T10:18:08.458Z,33.00
2018-07-28T10:20:36.268Z,33.78
2018-07-28T10:23:04.120Z,33.63
2018-07-28T10:25:31.894Z,33.51
2018-07-28T10:27:59.901Z,33.60
2018-07-28T10:30:27.669Z,33.02
2018-07-28T10:32:55.455Z,31.84
2018-07-28T10:35:23.205Z,31.09
2018-07-28T10:37:50.949Z,30.92
2018-07-28T10:40:18.709Z,30.38
2018-07-28T10:42:46.474Z,31.12
2018-07-28T10:45:14.290Z,30.92
2018-07-28T10:47:42.106Z,31.12
2018-07-28T10:50:09.895Z,32.62
2018-07-28T10:52:37.654Z,33.29
2018-07-28T10:55:05.495Z,33.42
2018-07-28T10:57:33.286Z,34.67
2018-07-28T11:00:01.070Z,34.79
2018-07-28T11:02:28.865Z,34.53
2018-07-28T11:04:56.642Z,33.66
2018-07-28T11:07:24.401Z,33.00
2018-07-28T11:09:52.305Z,31.38
2018-07-28T11:12:20.169Z,31.18
2018-07-28T11:14:48.789Z,31.68
2018-07-28T11:17:16.637Z,32.04
2018-07-28T11:19:44.399Z,31.71
2018-07-28T11:22:12.223Z,31.42
2018-07-28T11:24:39.974Z,31.89
2018-07-28T11:27:07.778Z,33.41
2018-07-28T11:29:35.624Z,35.26
2018-07-28T11:32:14.641Z,35.75
2018-07-28T11:34:53.713Z,34.50
2018-07-28T11:37:32.699Z,33.79
2018-07-28T11:40:11.618Z,33.34
2018-07-28T11:42:50.481Z,34.08
2018-07-28T11:45:18.754Z,34.18
2018-07-28T11:47:46.569Z,33.84
2018-07-28T11:50:14.426Z,34.93
2018-07-28T11:52:42.455Z,33.66
2018-07-28T11:55:10.323Z,35.52
2018-07-28T11:57:38.143Z,33.65
2018-07-28T12:00:07.555Z,34.54
2018-07-28T12:02:35.330Z,35.60
2018-07-28T12:05:03.208Z,34.51
2018-07-28T12:07:31.036Z,34.48
2018-07-28T12:09:58.854Z,35.52
2018-07-28T12:12:26.690Z,35.98
2018-07-28T12:14:54.463Z,34.41
2018-07-28T12:17:22.251Z,32.95
2018-07-28T12:19:50.083Z,32.96
2018-07-28T12:22:17.893Z,35.01
2018-07-28T12:24:45.721Z,35.72
2018-07-28T12:27:13.553Z,36.03
2018-07-28T12:29:41.372Z,36.21
2018-07-28T12:32:09.458Z,36.02
2018-07-28T12:34:37.360Z,35.57
2018-07-28T12:37:05.321Z,35.43
2018-07-28T12:39:33.166Z,35.06
2018-07-28T12:42:01.067Z,34.89
2018-07-28T12:44:28.952Z,34.51
2018-07-28T12:46:56.725Z,33.52
2018-07-28T12:49:24.638Z,34.00
2018-07-28T12:51:52.482Z,34.80
2018-07-28T12:54:20.321Z,35.80
2018-07-28T12:56:48.218Z,34.83
2018-07-28T12:59:16.064Z,34.51
2018-07-28T13:01:43.986Z,35.07
2018-07-28T13:04:11.845Z,35.37
2018-07-28T13:06:39.689Z,36.04
2018-07-28T13:09:09.303Z,35.82
2018-07-28T13:11:37.126Z,36.25
2018-07-28T13:14:05.051Z,36.08
2018-07-28T13:16:33.021Z,34.85
2018-07-28T13:19:00.874Z,35.55
2018-07-28T13:21:28.712Z,35.65
2018-07-28T13:23:56.629Z,35.09
2018-07-28T13:26:24.541Z,35.54
2018-07-28T13:28:52.386Z,35.16
2018-07-28T13:31:20.225Z,35.04
2018-07-28T13:33:48.353Z,34.69
2018-07-28T13:36:16.176Z,35.30
2018-07-28T13:38:44.026Z,36.34
2018-07-28T13:41:11.902Z,37.15
2018-07-28T13:43:39.823Z,37.46
2018-07-28T13:46:07.636Z,35.74
2018-07-28T13:48:35.505Z,36.61
2018-07-28T13:51:03.412Z,36.28
2018-07-28T13:53:31.341Z,36.04
2018-07-28T13:55:59.575Z,35.66
2018-07-28T13:58:27.390Z,36.09
2018-07-28T14:00:55.207Z,35.07
2018-07-28T14:03:23.713Z,34.78
2018-07-28T14:05:51.514Z,34.19
2018-07-28T14:08:19.302Z,34.13
2018-07-28T14:10:47.118Z,34.06
2018-07-28T14:13:14.897Z,34.09
2018-07-28T14:15:42.695Z,33.82
2018-07-28T14:18:10.555Z,34.08
2018-07-28T14:20:38.350Z,34.67
2018-07-28T14:23:06.179Z,34.85
2018-07-28T14:25:34.014Z,34.12
2018-07-28T14:28:01.801Z,34.60
2018-07-28T14:30:29.652Z,34.20
2018-07-28T14:32:57.442Z,34.52
2018-07-28T14:35:25.297Z,33.92
2018-07-28T14:37:53.126Z,34.77
2018-07-28T14:40:20.935Z,35.00
2018-07-28T14:42:48.729Z,35.48
2018-07-28T14:45:16.549Z,34.38
2018-07-28T14:47:44.362Z,35.15
2018-07-28T14:50:12.299Z,35.80
2018-07-28T14:52:40.092Z,35.39
2018-07-28T14:55:07.952Z,35.70
2018-07-28T14:57:35.738Z,36.15
2018-07-28T15:00:03.610Z,35.02
2018-07-28T15:02:31.403Z,34.99
2018-07-28T15:04:59.215Z,35.49
2018-07-28T15:07:27.098Z,34.86
2018-07-28T15:09:54.879Z,35.17
2018-07-28T15:12:22.680Z,35.31
2018-07-28T15:14:50.565Z,35.19
2018-07-28T15:17:18.369Z,35.20
2018-07-28T15:19:46.192Z,34.44
2018-07-28T15:22:14.024Z,34.50
2018-07-28T15:24:41.805Z,34.30
2018-07-28T15:27:09.608Z,33.93
2018-07-28T15:29:37.459Z,34.28
2018-07-28T15:32:05.380Z,33.79
2018-07-28T15:34:33.169Z,33.44
2018-07-28T15:37:00.997Z,32.89
2018-07-28T15:39:28.767Z,32.23
2018-07-28T15:41:56.590Z,32.07
2018-07-28T15:44:26.118Z,32.16
2018-07-28T15:46:53.898Z,32.24
2018-07-28T15:49:21.662Z,32.12
2018-07-28T15:51:49.469Z,31.24
2018-07-28T15:54:17.258Z,31.48
2018-07-28T15:56:45.086Z,31.57
2018-07-28T15:59:12.921Z,31.87
2018-07-28T16:01:40.776Z,32.02
2018-07-28T16:04:08.553Z,32.26
2018-07-28T16:06:36.374Z,32.67
2018-07-28T16:09:07.013Z,32.83
2018-07-28T16:11:34.840Z,32.85
2018-07-28T16:14:02.681Z,32.87
2018-07-28T16:16:30.703Z,33.13
2018-07-28T16:18:58.536Z,32.72
2018-07-28T16:21:26.375Z,32.41
2018-07-28T16:23:54.249Z,31.69
2018-07-28T16:26:22.049Z,31.06
2018-07-28T16:28:49.891Z,30.62
2018-07-28T16:31:17.689Z,30.02
2018-07-28T16:33:45.485Z,29.75
2018-07-28T16:36:13.289Z,29.48
2018-07-28T16:38:41.098Z,29.62
2018-07-28T16:41:08.979Z,29.71
2018-07-28T16:43:36.824Z,29.99
2018-07-28T16:46:05.067Z,29.75
2018-07-28T16:48:32.846Z,29.82
2018-07-28T16:51:00.697Z,30.01
2018-07-28T16:53:28.518Z,29.79
2018-07-28T16:55:56.323Z,29.86
2018-07-28T16:58:24.156Z,30.11
2018-07-28T17:00:51.972Z,29.82
2018-07-28T17:03:19.998Z,29.75
2018-07-28T17:05:47.929Z,29.98
2018-07-28T17:08:15.746Z,29.82
2018-07-28T17:10:43.657Z,29.78
2018-07-28T17:13:11.490Z,29.46
2018-07-28T17:15:39.380Z,29.48
2018-07-28T17:18:07.227Z,29.31
2018-07-28T17:20:35.053Z,29.14
2018-07-28T17:23:02.886Z,29.12
2018-07-28T17:25:30.741Z,29.21
2018-07-28T17:27:58.582Z,28.99
2018-07-28T17:30:26.374Z,28.89
2018-07-28T17:32:54.173Z,28.93
2018-07-28T17:35:21.953Z,28.72
2018-07-28T17:37:49.749Z,28.60
2018-07-28T17:40:17.588Z,28.65
2018-07-28T17:42:45.353Z,28.68
2018-07-28T17:45:13.148Z,28.75
2018-07-28T17:47:41.001Z,28.90
2018-07-28T17:50:08.892Z,28.84
2018-07-28T17:52:36.860Z,28.70
2018-07-28T17:55:04.721Z,28.74
2018-07-28T17:57:32.553Z,28.72
2018-07-28T18:00:00.435Z,28.31
2018-07-28T18:02:28.241Z,28.38
2018-07-28T18:04:56.125Z,28.56
2018-07-28T18:07:23.951Z,28.33
2018-07-28T18:09:51.842Z,28.20
2018-07-28T18:12:19.733Z,28.12
2018-07-28T18:14:47.595Z,28.25
2018-07-28T18:17:15.483Z,28.59
2018-07-28T18:19:43.267Z,28.41
2018-07-28T18:22:11.927Z,28.55
2018-07-28T18:24:39.832Z,28.54
2018-07-28T18:27:07.914Z,28.61
2018-07-28T18:29:35.792Z,28.06
2018-07-28T18:32:03.626Z,27.30
2018-07-28T18:34:31.783Z,27.19
2018-07-28T18:36:59.593Z,26.97
2018-07-28T18:39:27.450Z,26.83
2018-07-28T18:41:55.337Z,26.62
2018-07-28T18:44:23.169Z,26.84
2018-07-28T18:46:50.968Z,25.74
2018-07-28T18:49:18.777Z,25.43
2018-07-28T18:51:46.535Z,25.43
2018-07-28T18:54:14.519Z,25.62
2018-07-28T18:56:42.345Z,25.49
2018-07-28T18:59:10.095Z,25.38
2018-07-28T19:01:37.972Z,25.08
2018-07-28T19:04:06.220Z,24.91
2018-07-28T19:06:34.076Z,24.70
2018-07-28T19:09:07.308Z,24.82
2018-07-28T19:11:35.153Z,24.92
2018-07-28T19:14:08.349Z,24.94
2018-07-28T19:16:36.193Z,25.12
2018-07-28T19:19:09.493Z,25.09
2018-07-28T19:21:37.328Z,25.11
2018-07-28T19:24:05.206Z,25.06
2018-07-28T19:26:33.061Z,25.03
2018-07-28T19:29:06.320Z,24.68
2018-07-28T19:31:34.138Z,24.45
2018-07-28T19:34:01.961Z,24.38
2018-07-28T19:36:35.249Z,24.44
2018-07-28T19:39:03.923Z,24.60
2018-07-28T19:41:36.225Z,24.82
2018-07-28T19:44:04.126Z,24.91
2018-07-28T19:46:31.946Z,24.98
2018-07-28T19:48:59.726Z,25.10
2018-07-28T19:51:27.574Z,24.86
2018-07-28T19:53:55.427Z,24.95
2018-07-28T19:56:23.236Z,24.93
2018-07-28T19:58:51.081Z,24.65
2018-07-28T20:01:18.897Z,24.64
2018-07-28T20:03:46.725Z,24.80
2018-07-28T20:06:14.530Z,24.69
2018-07-28T20:08:42.291Z,24.61
2018-07-28T20:11:10.053Z,24.67
2018-07-28T20:13:37.930Z,24.75
2018-07-28T20:16:05.804Z,25.02
2018-07-28T20:18:33.706Z,25.03
2018-07-28T20:21:01.604Z,25.15
2018-07-28T20:23:29.456Z,25.25
2018-07-28T20:25:57.348Z,25.19
2018-07-28T20:28:25.308Z,24.99
2018-07-28T20:30:53.124Z,25.27
2018-07-28T20:33:21.173Z,25.18
2018-07-28T20:35:49.096Z,25.04
2018-07-28T20:38:17.111Z,25.25
2018-07-28T20:40:45.056Z,25.36
2018-07-28T20:43:13.172Z,25.45
2018-07-28T20:45:41.020Z,25.52
2018-07-28T20:48:08.846Z,25.54
2018-07-28T20:50:36.680Z,25.56
2018-07-28T20:53:04.620Z,25.45
2018-07-28T20:55:32.469Z,25.53
2018-07-28T20:58:00.290Z,25.55
2018-07-28T21:00:28.122Z,25.52
2018-07-28T21:02:55.935Z,25.58
2018-07-28T21:05:23.796Z,25.61
2018-07-28T21:07:51.628Z,25.67
2018-07-28T21:10:19.445Z,25.74
2018-07-28T21:12:47.253Z,25.78
2018-07-28T21:15:15.053Z,25.82
2018-07-28T21:17:42.863Z,25.80
2018-07-28T21:20:10.691Z,25.75
2018-07-28T21:22:38.612Z,25.64
2018-07-28T21:25:06.439Z,25.61
2018-07-28T21:27:34.234Z,25.41
2018-07-28T21:30:02.051Z,25.29
2018-07-28T21:32:29.853Z,25.20
2018-07-28T21:34:57.661Z,25.28
2018-07-28T21:37:25.441Z,25.11
2018-07-28T21:39:53.293Z,25.06
2018-07-28T21:42:21.063Z,24.98
2018-07-28T21:44:48.849Z,24.76
2018-07-28T21:47:16.614Z,24.93
2018-07-28T21:49:44.369Z,24.83
2018-07-28T21:52:12.175Z,24.72
2018-07-28T21:54:39.975Z,24.93
2018-07-28T21:57:07.754Z,25.16
2018-07-28T21:59:35.528Z,25.07
2018-07-28T22:02:03.410Z,25.19
2018-07-28T22:04:33.543Z,25.29
2018-07-28T22:07:01.311Z,25.35
2018-07-28T22:09:29.065Z,25.43
2018-07-28T22:11:56.865Z,25.38
2018-07-28T22:14:24.649Z,25.24
2018-07-28T22:16:52.435Z,25.38
2018-07-28T22:19:20.189Z,25.44
2018-07-28T22:21:48.001Z,25.33
2018-07-28T22:24:15.824Z,25.04
2018-07-28T22:26:43.943Z,25.01
2018-07-28T22:29:11.721Z,25.01
2018-07-28T22:31:39.773Z,24.96
2018-07-28T22:34:07.950Z,25.02
2018-07-28T22:36:35.814Z,25.06
2018-07-28T22:39:05.068Z,25.19
2018-07-28T22:41:32.828Z,25.21
2018-07-28T22:44:00.597Z,25.12
2018-07-28T22:46:28.401Z,25.01
2018-07-28T22:48:56.217Z,24.98
2018-07-28T22:51:23.969Z,24.74
2018-07-28T22:53:51.736Z,24.66
2018-07-28T22:56:19.509Z,24.76
2018-07-28T22:58:47.265Z,24.83
2018-07-28T23:01:15.124Z,24.84
2018-07-28T23:03:42.877Z,24.76
2018-07-28T23:06:10.637Z,25.00
2018-07-28T23:08:38.427Z,25.01
2018-07-28T23:11:06.257Z,24.68
2018-07-28T23:13:34.048Z,24.86
2018-07-28T23:16:01.841Z,24.96
2018-07-28T23:18:29.589Z,25.08
2018-07-28T23:20:57.385Z,25.18
2018-07-28T23:23:25.167Z,25.19
2018-07-28T23:25:52.988Z,25.24
2018-07-28T23:28:20.905Z,25.28
2018-07-28T23:30:48.702Z,25.23
2018-07-28T23:33:16.479Z,25.30
2018-07-28T23:35:44.253Z,25.33
2018-07-28T23:38:12.077Z,25.30
2018-07-28T23:40:39.825Z,25.35
2018-07-28T23:43:07.602Z,25.34
2018-07-28T23:45:35.371Z,25.35
2018-07-28T23:48:03.207Z,25.33
2018-07-28T23:50:36.638Z,25.19
2018-07-28T23:53:04.515Z,25.19
2018-07-28T23:55:32.306Z,25.21
2018-07-28T23:58:00.109Z,25.20
